Time;durP1;ratioP1;P1;durP2;ratioP2;P2;SDS_P1;SDS_P2;PMS_P1;PMS_P2;Temp;Humidity;BMP_temperature;BMP_pressure;BME280_temperature;BME280_humidity;BME280_pressure;Samples;Min_cycle;Max_cycle;Signal;HPM_P1;HPM_P2
2023/11/15 00:02:02;;;;;;;7.07;6.43;;;12.80;99.90;;;;;;5051602;28;20452;-62
2023/11/15 00:04:27;;;;;;;7.47;6.87;;;12.90;99.90;;;;;;5051339;28;20412;-61
2023/11/15 00:06:53;;;;;;;7.47;6.83;;;12.90;99.90;;;;;;5052025;28;20642;-62
2023/11/15 00:09:19;;;;;;;7.23;6.53;;;12.80;99.90;;;;;;5051448;28;20223;-62
2023/11/15 00:11:45;;;;;;;6.67;6.17;;;12.90;99.90;;;;;;5051309;28;20165;-62
2023/11/15 00:14:10;;;;;;;7.27;6.63;;;12.80;99.90;;;;;;5034166;28;20631;-62
2023/11/15 00:16:37;;;;;;;9.57;6.70;;;12.80;99.90;;;;;;5051077;28;20698;-62
2023/11/15 00:19:06;;;;;;;6.67;6.17;;;12.90;99.90;;;;;;5051433;28;20188;-62
2023/11/15 00:21:34;;;;;;;6.23;5.83;;;12.80;99.90;;;;;;5050267;28;20957;-62
2023/11/15 00:24:00;;;;;;;5.73;5.43;;;12.80;99.90;;;;;;5052044;28;20413;-62
2023/11/15 00:26:26;;;;;;;7.57;5.87;;;12.80;99.90;;;;;;5052311;28;20408;-62
2023/11/15 00:28:52;;;;;;;6.43;5.67;;;12.70;99.90;;;;;;5054891;28;20413;-61
2023/11/15 00:31:19;;;;;;;6.67;6.07;;;12.80;99.90;;;;;;5037653;28;20419;-61
2023/11/15 00:33:45;;;;;;;9.10;5.93;;;12.90;99.90;;;;;;5036500;28;20509;-61
2023/11/15 00:36:11;;;;;;;5.67;5.33;;;12.90;99.90;;;;;;5055346;28;20502;-62
2023/11/15 00:38:38;;;;;;;6.50;6.10;;;12.90;99.90;;;;;;5054775;28;20412;-62
2023/11/15 00:41:06;;;;;;;6.23;5.83;;;12.90;99.90;;;;;;5055271;28;20402;-62
2023/11/15 00:43:32;;;;;;;5.93;5.53;;;12.90;99.90;;;;;;5054574;28;20577;-61
2023/11/15 00:45:58;;;;;;;6.70;6.20;;;12.90;99.90;;;;;;5054922;28;20545;-61
2023/11/15 00:48:24;;;;;;;6.60;6.10;;;12.90;99.90;;;;;;5055174;28;20184;-61
2023/11/15 00:50:51;;;;;;;6.20;5.60;;;12.90;99.90;;;;;;5053298;28;20427;-61
2023/11/15 00:53:17;;;;;;;4.70;4.40;;;12.90;99.90;;;;;;5046133;28;20427;-61
2023/11/15 00:55:43;;;;;;;6.17;5.40;;;12.90;99.90;;;;;;5054057;28;20426;-61
2023/11/15 00:58:09;;;;;;;5.37;4.87;;;12.90;99.90;;;;;;5054838;28;20783;-61
2023/11/15 01:00:39;;;;;;;6.40;5.60;;;12.90;99.90;;;;;;5036593;28;20179;-61
2023/11/15 01:03:05;;;;;;;4.53;4.23;;;12.80;99.90;;;;;;5036976;28;20596;-61
2023/11/15 01:05:31;;;;;;;4.60;4.30;;;12.80;99.90;;;;;;5053772;28;20461;-60
2023/11/15 01:07:59;;;;;;;4.73;4.33;;;12.80;99.90;;;;;;5054060;28;20928;-61
2023/11/15 01:10:25;;;;;;;4.57;4.30;;;12.80;99.90;;;;;;5054468;28;20454;-62
2023/11/15 01:12:51;;;;;;;4.50;4.20;;;12.80;99.90;;;;;;5053579;28;20842;-61
2023/11/15 01:15:19;;;;;;;4.33;4.03;;;12.80;99.90;;;;;;5054387;28;20231;-61
2023/11/15 01:17:48;;;;;;;4.30;4.00;;;12.80;99.90;;;;;;5053734;28;20226;-61
2023/11/15 01:20:14;;;;;;;4.57;4.17;;;12.80;99.90;;;;;;5053677;28;20434;-61
2023/11/15 01:22:41;;;;;;;4.50;4.10;;;12.80;99.90;;;;;;5033967;28;20446;-61
2023/11/15 01:25:07;;;;;;;4.43;4.20;;;12.70;99.90;;;;;;5047948;28;20897;-62
2023/11/15 01:27:33;;;;;;;4.70;4.37;;;12.70;99.90;;;;;;5053568;28;20415;-61
2023/11/15 01:29:59;;;;;;;4.10;3.80;;;12.70;99.90;;;;;;5036613;28;20414;-61
2023/11/15 01:32:24;;;;;;;4.03;3.87;;;12.70;99.90;;;;;;5053855;28;20430;-62
2023/11/15 01:34:50;;;;;;;4.53;3.87;;;12.70;99.90;;;;;;5053132;28;20423;-62
2023/11/15 01:37:16;;;;;;;4.63;4.30;;;12.70;99.90;;;;;;5053891;28;20261;-62
2023/11/15 01:39:42;;;;;;;3.97;3.60;;;12.70;99.90;;;;;;5053257;28;20184;-62
2023/11/15 01:42:08;;;;;;;4.10;3.90;;;12.80;99.90;;;;;;5054040;28;20447;-62
2023/11/15 01:44:34;;;;;;;4.77;4.30;;;12.80;99.90;;;;;;5052330;28;20258;-62
2023/11/15 01:47:00;;;;;;;4.03;3.77;;;12.80;99.90;;;;;;5053666;28;20180;-62
2023/11/15 01:49:27;;;;;;;4.37;4.00;;;12.80;99.90;;;;;;5052445;28;20488;-62
2023/11/15 01:51:54;;;;;;;4.23;4.00;;;12.80;99.90;;;;;;5052619;28;20682;-62
2023/11/15 01:54:21;;;;;;;5.33;3.90;;;12.80;99.90;;;;;;5054214;28;20443;-62
2023/11/15 01:56:47;;;;;;;4.50;4.30;;;12.90;99.90;;;;;;5053284;28;20422;-62
2023/11/15 01:59:14;;;;;;;4.60;4.30;;;12.90;99.90;;;;;;5054091;28;20493;-63
2023/11/15 02:01:41;;;;;;;3.83;3.63;;;13.00;99.90;;;;;;5052735;28;20450;-62
2023/11/15 02:04:08;;;;;;;4.27;4.00;;;13.00;99.90;;;;;;5035825;28;20491;-62
2023/11/15 02:06:35;;;;;;;4.93;4.13;;;13.00;99.90;;;;;;5053716;28;20415;-62
2023/11/15 02:09:02;;;;;;;4.07;3.80;;;13.00;99.90;;;;;;5036103;28;20407;-62
2023/11/15 02:11:28;;;;;;;4.67;4.40;;;13.00;99.90;;;;;;5053625;28;20413;-62
2023/11/15 02:13:54;;;;;;;6.57;5.73;;;13.00;99.90;;;;;;5053244;28;20443;-63
2023/11/15 02:16:23;;;;;;;6.00;5.40;;;13.00;99.90;;;;;;5052757;28;20475;-61
2023/11/15 02:18:49;;;;;;;7.00;6.30;;;13.00;99.90;;;;;;5051683;28;20426;-60
2023/11/15 02:21:15;;;;;;;6.87;6.23;;;13.00;99.90;;;;;;5051902;28;20414;-62
2023/11/15 02:23:45;;;;;;;9.07;7.50;;;13.00;99.90;;;;;;5052381;28;20172;-62
2023/11/15 02:26:12;;;;;;;7.77;6.87;;;13.00;99.90;;;;;;5052894;28;20437;-62
2023/11/15 02:28:38;;;;;;;7.70;7.00;;;12.90;99.90;;;;;;5052683;28;20415;-61
2023/11/15 02:31:05;;;;;;;8.77;6.87;;;12.90;99.90;;;;;;5053233;28;20399;-62
2023/11/15 02:33:32;;;;;;;8.30;7.50;;;13.00;99.90;;;;;;5053152;28;20422;-62
2023/11/15 02:35:58;;;;;;;10.70;7.67;;;13.00;99.90;;;;;;5034170;28;20903;-62
2023/11/15 02:38:24;;;;;;;13.47;8.97;;;13.00;99.90;;;;;;5053045;28;20425;-62
2023/11/15 02:40:49;;;;;;;8.37;7.77;;;13.00;99.90;;;;;;5052387;28;20411;-62
2023/11/15 02:43:15;;;;;;;8.83;8.00;;;13.00;99.90;;;;;;5034949;28;20240;-62
2023/11/15 02:45:41;;;;;;;12.27;7.70;;;13.00;99.90;;;;;;5052340;28;20214;-62
2023/11/15 02:48:08;;;;;;;8.07;7.37;;;13.00;99.90;;;;;;5051749;28;20671;-62
2023/11/15 02:50:34;;;;;;;8.17;7.37;;;13.00;99.90;;;;;;5051394;28;20424;-61
2023/11/15 02:53:00;;;;;;;7.40;6.80;;;12.90;99.90;;;;;;5033876;28;20449;-62
2023/11/15 02:55:25;;;;;;;10.33;7.30;;;12.80;99.90;;;;;;5052998;28;20411;-62
2023/11/15 02:57:51;;;;;;;9.10;8.03;;;12.80;99.90;;;;;;5052141;28;20196;-61
2023/11/15 03:00:17;;;;;;;9.63;7.23;;;12.80;99.90;;;;;;5052681;28;20527;-62
2023/11/15 03:02:43;;;;;;;7.47;6.77;;;12.80;99.90;;;;;;5052014;28;20197;-62
2023/11/15 03:05:10;;;;;;;8.90;6.70;;;12.80;99.90;;;;;;5052445;28;20564;-62
2023/11/15 03:07:36;;;;;;;9.87;6.73;;;12.70;99.90;;;;;;5052213;28;20208;-62
2023/11/15 03:10:03;;;;;;;8.03;7.27;;;12.70;99.90;;;;;;5034476;28;20400;-62
2023/11/15 03:12:32;;;;;;;7.40;6.60;;;12.70;99.90;;;;;;5052573;28;20405;-62
2023/11/15 03:14:58;;;;;;;9.83;7.60;;;12.70;99.90;;;;;;5051542;28;21087;-62
2023/11/15 03:17:23;;;;;;;8.23;7.53;;;12.80;99.90;;;;;;5051716;28;20445;-62
2023/11/15 03:19:49;;;;;;;7.67;7.07;;;12.80;99.90;;;;;;5051981;28;20224;-62
2023/11/15 03:22:17;;;;;;;10.03;7.27;;;12.80;99.90;;;;;;5051432;28;20200;-62
2023/11/15 03:24:45;;;;;;;9.97;6.50;;;12.80;99.90;;;;;;5051546;28;20423;-61
2023/11/15 03:27:11;;;;;;;10.73;6.70;;;12.80;99.90;;;;;;5034918;28;20432;-62
2023/11/15 03:29:37;;;;;;;8.07;7.37;;;12.80;99.90;;;;;;5052344;28;20399;-62
2023/11/15 03:32:03;;;;;;;8.70;7.40;;;12.80;99.90;;;;;;5051963;28;20761;-62
2023/11/15 03:34:29;;;;;;;7.87;7.23;;;12.80;99.90;;;;;;5052044;28;20178;-61
2023/11/15 03:36:55;;;;;;;8.90;8.00;;;12.80;99.90;;;;;;5051682;28;20408;-62
2023/11/15 03:39:21;;;;;;;9.70;8.70;;;12.80;99.90;;;;;;5051912;28;20204;-61
2023/11/15 03:41:46;;;;;;;8.80;7.97;;;12.90;99.90;;;;;;5051461;28;20488;-61
2023/11/15 03:44:12;;;;;;;9.63;8.83;;;12.90;99.90;;;;;;5052270;28;20257;-62
2023/11/15 03:46:38;;;;;;;8.63;7.83;;;12.90;99.90;;;;;;5051057;28;20179;-62
2023/11/15 03:49:04;;;;;;;11.30;7.23;;;12.90;99.90;;;;;;5051027;28;20534;-63
2023/11/15 03:51:30;;;;;;;7.93;7.13;;;12.90;99.90;;;;;;5052219;28;20213;-63
2023/11/15 03:53:56;;;;;;;9.97;8.97;;;12.90;99.90;;;;;;5051018;28;20423;-63
2023/11/15 03:56:21;;;;;;;9.00;7.63;;;13.00;99.90;;;;;;5052246;28;20411;-62
2023/11/15 03:58:47;;;;;;;9.33;7.87;;;13.00;99.90;;;;;;5051570;28;20188;-62
2023/11/15 04:01:14;;;;;;;8.87;7.97;;;13.00;99.90;;;;;;5053717;28;20230;-62
2023/11/15 04:03:39;;;;;;;8.63;7.30;;;12.90;99.90;;;;;;5055779;28;20561;-63
2023/11/15 04:06:05;;;;;;;8.30;7.60;;;12.90;99.90;;;;;;5055432;28;20446;-63
2023/11/15 04:08:31;;;;;;;9.40;7.80;;;12.90;99.90;;;;;;5055764;28;20179;-63
2023/11/15 04:11:00;;;;;;;8.33;7.57;;;12.90;99.90;;;;;;5054913;28;20441;-63
2023/11/15 04:13:26;;;;;;;8.27;7.50;;;12.90;99.90;;;;;;5055757;28;20815;-60
2023/11/15 04:15:52;;;;;;;8.13;7.43;;;12.90;99.90;;;;;;5052821;28;20480;-63
2023/11/15 04:18:17;;;;;;;7.87;6.93;;;12.80;99.90;;;;;;5055876;28;20176;-60
2023/11/15 04:20:43;;;;;;;8.10;6.83;;;12.80;99.90;;;;;;5053791;28;20254;-60
2023/11/15 04:23:09;;;;;;;7.53;6.80;;;12.80;99.90;;;;;;5055596;28;20630;-61
2023/11/15 04:25:35;;;;;;;8.63;6.47;;;12.90;99.90;;;;;;5055109;28;20454;-61
2023/11/15 04:28:01;;;;;;;10.00;7.10;;;13.00;99.90;;;;;;5055000;28;20561;-60
2023/11/15 04:30:27;;;;;;;7.47;6.87;;;12.90;99.90;;;;;;5055467;28;20162;-60
2023/11/15 04:32:53;;;;;;;7.93;6.33;;;12.80;99.90;;;;;;5054378;28;20430;-60
2023/11/15 04:35:18;;;;;;;10.47;7.00;;;12.90;99.90;;;;;;5055429;28;20510;-60
2023/11/15 04:37:44;;;;;;;7.13;6.53;;;12.90;99.90;;;;;;5054802;28;20407;-59
2023/11/15 04:40:10;;;;;;;7.57;6.87;;;12.90;99.90;;;;;;5054939;28;20255;-60
2023/11/15 04:42:37;;;;;;;10.70;6.60;;;12.90;99.90;;;;;;5055052;28;20196;-60
2023/11/15 04:45:04;;;;;;;8.97;6.40;;;12.90;99.90;;;;;;5053654;28;20426;-60
2023/11/15 04:47:30;;;;;;;8.53;6.90;;;12.90;99.90;;;;;;5055182;28;20768;-60
2023/11/15 04:49:56;;;;;;;11.23;9.00;;;12.90;99.90;;;;;;5053997;28;20422;-61
2023/11/15 04:52:22;;;;;;;7.57;6.70;;;13.00;99.90;;;;;;5055508;28;20807;-61
2023/11/15 04:54:48;;;;;;;9.10;8.20;;;13.00;99.90;;;;;;5054144;28;20436;-60
2023/11/15 04:57:16;;;;;;;8.60;7.70;;;12.90;99.90;;;;;;5055003;28;20647;-61
2023/11/15 04:59:42;;;;;;;9.90;8.50;;;12.90;99.90;;;;;;5054932;28;20810;-61
2023/11/15 05:02:07;;;;;;;12.30;8.67;;;13.00;99.90;;;;;;5053586;28;20485;-61
2023/11/15 05:04:33;;;;;;;7.97;7.20;;;13.00;99.90;;;;;;5053851;28;20511;-61
2023/11/15 05:06:59;;;;;;;9.13;7.60;;;13.00;99.90;;;;;;5054087;28;20243;-61
2023/11/15 05:09:27;;;;;;;8.20;7.40;;;13.00;99.90;;;;;;5054811;28;20171;-61
2023/11/15 05:11:52;;;;;;;7.77;7.13;;;13.00;99.90;;;;;;5053703;28;20407;-61
2023/11/15 05:14:18;;;;;;;11.27;8.00;;;13.00;99.90;;;;;;5036378;28;20418;-61
2023/11/15 05:16:44;;;;;;;9.60;8.30;;;13.00;99.90;;;;;;5069734;28;20230;-61
2023/11/15 05:19:10;;;;;;;6.93;6.20;;;12.90;99.90;;;;;;5073907;28;20178;-61
2023/11/15 05:21:35;;;;;;;9.03;7.90;;;13.00;99.90;;;;;;5074434;28;20175;-61
2023/11/15 05:24:01;;;;;;;11.10;7.03;;;13.00;99.90;;;;;;5073592;28;20176;-61
2023/11/15 05:26:27;;;;;;;12.20;7.83;;;13.00;99.90;;;;;;5074507;28;20266;-61
2023/11/15 05:28:53;;;;;;;12.10;8.60;;;13.00;99.90;;;;;;5074159;28;20179;-60
2023/11/15 05:31:18;;;;;;;8.53;7.67;;;13.00;99.90;;;;;;5074514;28;20178;-61
2023/11/15 05:33:46;;;;;;;9.47;7.50;;;12.90;99.90;;;;;;5074699;28;20180;-61
2023/11/15 05:36:12;;;;;;;11.47;6.97;;;13.00;99.90;;;;;;5072650;28;20229;-61
2023/11/15 05:38:38;;;;;;;12.07;7.70;;;12.90;99.90;;;;;;5071963;28;20465;-61
2023/11/15 05:41:05;;;;;;;9.53;6.97;;;13.00;99.90;;;;;;5073686;28;20446;-61
2023/11/15 05:43:31;;;;;;;17.67;9.20;;;12.90;99.90;;;;;;5074148;28;20591;-61
2023/11/15 05:45:57;;;;;;;7.77;6.83;;;12.90;99.90;;;;;;5054856;28;20945;-61
2023/11/15 05:48:23;;;;;;;9.63;7.50;;;12.90;99.90;;;;;;5074128;28;20422;-61
2023/11/15 05:50:48;;;;;;;12.27;9.00;;;12.80;99.90;;;;;;5073412;28;20165;-60
2023/11/15 05:53:15;;;;;;;11.13;7.87;;;12.80;99.90;;;;;;5074021;28;20168;-61
2023/11/15 05:55:42;;;;;;;9.80;7.10;;;12.90;99.90;;;;;;5073534;28;20599;-61
2023/11/15 05:58:09;;;;;;;9.30;6.90;;;12.90;99.90;;;;;;5073269;28;20708;-61
2023/11/15 06:00:35;;;;;;;9.13;6.90;;;12.90;99.90;;;;;;5073229;28;20419;-61
2023/11/15 06:03:01;;;;;;;10.50;7.80;;;12.90;99.90;;;;;;5071762;28;20790;-63
2023/11/15 06:05:29;;;;;;;13.07;7.50;;;12.90;99.90;;;;;;5072871;28;20419;-64
2023/11/15 06:07:54;;;;;;;11.40;8.10;;;12.90;99.90;;;;;;5071785;28;20220;-63
2023/11/15 06:10:20;;;;;;;8.00;7.07;;;12.90;99.90;;;;;;5073135;28;20417;-63
2023/11/15 06:12:46;;;;;;;6.63;6.03;;;13.00;99.90;;;;;;5073645;28;20187;-64
2023/11/15 06:15:12;;;;;;;6.43;5.57;;;13.00;99.90;;;;;;5066962;28;20217;-63
2023/11/15 06:17:39;;;;;;;8.97;5.90;;;13.00;99.90;;;;;;5053548;28;20398;-63
2023/11/15 06:20:07;;;;;;;7.27;6.47;;;13.00;99.90;;;;;;5052236;28;20435;-63
2023/11/15 06:22:33;;;;;;;10.10;5.57;;;13.00;99.90;;;;;;5035078;28;20919;-64
2023/11/15 06:24:59;;;;;;;10.30;7.50;;;13.00;99.90;;;;;;5052449;28;20493;-62
2023/11/15 06:27:24;;;;;;;7.90;5.80;;;13.00;99.90;;;;;;5053102;28;20169;-62
2023/11/15 06:29:50;;;;;;;10.97;8.60;;;12.90;99.90;;;;;;5033902;28;20252;-60
2023/11/15 06:32:16;;;;;;;6.93;5.17;;;12.90;99.90;;;;;;5052350;28;20230;-62
2023/11/15 06:34:45;;;;;;;12.67;6.30;;;12.90;99.90;;;;;;5051312;28;21023;-62
2023/11/15 06:37:12;;;;;;;5.30;4.80;;;13.00;99.90;;;;;;5051961;28;20509;-62
2023/11/15 06:39:40;;;;;;;10.50;7.00;;;12.90;99.90;;;;;;5052392;28;20506;-62
2023/11/15 06:42:06;;;;;;;7.77;6.33;;;12.90;99.90;;;;;;5052152;28;20493;-62
2023/11/15 06:44:31;;;;;;;8.30;5.70;;;12.90;99.90;;;;;;5052416;28;20436;-62
2023/11/15 06:46:57;;;;;;;7.80;5.90;;;12.90;99.90;;;;;;5051150;28;20181;-62
2023/11/15 06:49:23;;;;;;;4.90;4.40;;;12.90;99.90;;;;;;5052391;28;20605;-62
2023/11/15 06:51:49;;;;;;;7.53;5.70;;;12.90;99.90;;;;;;5052816;28;20569;-62
2023/11/15 06:54:18;;;;;;;9.67;5.97;;;12.90;99.90;;;;;;5050195;28;20426;-62
2023/11/15 06:56:47;;;;;;;5.67;5.27;;;13.00;99.90;;;;;;5052373;28;20964;-62
2023/11/15 06:59:14;;;;;;;8.97;6.60;;;12.90;99.90;;;;;;5051556;28;20479;-64
2023/11/15 07:01:40;;;;;;;7.80;4.83;;;12.90;99.90;;;;;;5051950;28;20438;-64
2023/11/15 07:04:06;;;;;;;6.37;5.70;;;12.90;99.90;;;;;;5052081;28;20950;-65
2023/11/15 07:06:32;;;;;;;5.70;4.90;;;12.90;99.90;;;;;;5052607;28;20493;-64
2023/11/15 07:08:59;;;;;;;7.13;5.63;;;12.90;99.90;;;;;;5050741;28;20168;-71
2023/11/15 07:11:26;;;;;;;5.40;4.80;;;12.90;99.90;;;;;;5048839;28;20410;-71
2023/11/15 07:13:55;;;;;;;4.93;4.53;;;12.90;99.90;;;;;;5050756;28;20426;-64
2023/11/15 07:16:20;;;;;;;10.37;5.43;;;12.90;99.90;;;;;;5048933;28;20465;-72
2023/11/15 07:18:47;;;;;;;11.63;4.90;;;12.90;99.90;;;;;;5051887;28;20437;-72
2023/11/15 07:21:13;;;;;;;6.67;4.20;;;12.80;99.90;;;;;;5050966;28;20449;-73
2023/11/15 07:23:42;;;;;;;5.23;4.47;;;12.80;99.90;;;;;;5051580;28;20461;-69
2023/11/15 07:26:10;;;;;;;4.40;4.00;;;12.80;99.90;;;;;;5031823;28;20170;-73
2023/11/15 07:28:41;;;;;;;6.20;5.60;;;12.80;99.90;;;;;;5046076;28;20423;-72
2023/11/15 07:31:08;;;;;;;11.07;4.50;;;12.80;99.90;;;;;;5051145;28;20414;-72
2023/11/15 07:33:34;;;;;;;6.60;4.97;;;12.80;99.90;;;;;;5049786;28;20431;-72
2023/11/15 07:36:00;;;;;;;5.70;4.00;;;12.80;99.90;;;;;;5051082;28;20485;-73
2023/11/15 07:38:26;;;;;;;5.33;4.17;;;12.80;99.90;;;;;;5052144;28;20890;-73
2023/11/15 07:40:52;;;;;;;4.73;4.33;;;12.80;99.90;;;;;;5033893;28;20182;-73
2023/11/15 07:43:18;;;;;;;5.57;4.30;;;12.80;99.90;;;;;;5029165;28;20477;-73
2023/11/15 07:45:51;;;;;;;7.83;4.60;;;12.90;99.90;;;;;;5044026;28;20453;-73
2023/11/15 07:48:17;;;;;;;7.73;5.07;;;12.80;99.90;;;;;;5051037;28;20409;-73
2023/11/15 07:50:45;;;;;;;4.47;4.17;;;12.70;99.90;;;;;;5047677;28;20912;-73
2023/11/15 07:53:12;;;;;;;4.40;4.00;;;12.70;99.90;;;;;;5050223;28;20424;-73
2023/11/15 07:55:39;;;;;;;5.77;5.30;;;12.70;99.90;;;;;;5050715;28;20422;-73
2023/11/15 07:58:06;;;;;;;6.20;4.27;;;12.80;99.90;;;;;;5033617;28;20431;-73
2023/11/15 08:00:35;;;;;;;9.23;5.20;;;12.80;99.90;;;;;;5050281;28;20416;-73
2023/11/15 08:03:02;;;;;;;4.53;4.23;;;12.80;99.90;;;;;;5032462;28;20825;-73
2023/11/15 08:05:28;;;;;;;8.10;5.57;;;12.70;99.90;;;;;;5051884;28;20407;-73
2023/11/15 08:07:56;;;;;;;8.97;4.67;;;12.70;99.90;;;;;;5051957;28;20814;-73
2023/11/15 08:10:23;;;;;;;5.53;5.00;;;12.70;99.90;;;;;;5050050;28;20222;-72
2023/11/15 08:12:49;;;;;;;6.87;5.07;;;12.70;99.90;;;;;;5051956;28;20742;-72
2023/11/15 08:15:16;;;;;;;12.30;5.53;;;12.80;99.90;;;;;;5049361;28;20452;-81
2023/11/15 08:17:44;;;;;;;6.10;5.60;;;12.80;99.90;;;;;;5033493;28;20430;-73
2023/11/15 08:20:10;;;;;;;8.23;6.13;;;12.80;99.90;;;;;;5050745;28;20419;-73
2023/11/15 08:22:39;;;;;;;7.70;6.27;;;12.80;99.90;;;;;;5049850;28;20501;-72
2023/11/15 08:25:09;;;;;;;10.03;5.83;;;12.80;99.90;;;;;;5041861;28;20431;-72
2023/11/15 08:27:38;;;;;;;8.90;6.20;;;12.80;99.90;;;;;;5051532;28;20419;-69
2023/11/15 08:30:17;;;;;;;7.57;6.80;;;12.80;99.90;;;;;;5031337;28;20415;-72
2023/11/15 08:32:43;;;;;;;6.97;5.70;;;12.80;99.90;;;;;;5051204;28;20972;-68
2023/11/15 08:35:10;;;;;;;6.67;6.00;;;12.80;99.90;;;;;;5050175;28;20449;-72
2023/11/15 08:37:39;;;;;;;14.50;6.73;;;12.70;99.90;;;;;;5051266;28;20945;-72
2023/11/15 08:40:06;;;;;;;7.60;6.73;;;12.70;99.90;;;;;;5032571;28;20920;-72
2023/11/15 08:42:32;;;;;;;7.63;5.30;;;12.70;99.90;;;;;;5033026;28;20445;-73
2023/11/15 08:44:58;;;;;;;9.83;5.80;;;12.70;99.90;;;;;;5051039;28;20430;-62
2023/11/15 08:47:25;;;;;;;6.17;5.67;;;12.80;99.90;;;;;;5033602;28;20448;-71
2023/11/15 08:49:53;;;;;;;11.13;5.23;;;12.80;99.90;;;;;;5053489;28;20428;-72
2023/11/15 08:52:25;;;;;;;8.40;6.10;;;12.80;99.90;;;;;;5053961;28;20439;-72
2023/11/15 08:54:51;;;;;;;6.43;4.90;;;12.90;99.90;;;;;;5054695;28;20883;-72
2023/11/15 08:57:17;;;;;;;5.30;4.80;;;12.90;99.90;;;;;;5053854;28;20472;-76
2023/11/15 08:59:45;;;;;;;7.67;4.70;;;12.90;99.90;;;;;;5047719;28;21032;-72
2023/11/15 09:02:11;;;;;;;9.23;4.73;;;13.00;99.90;;;;;;5050528;28;20491;-72
2023/11/15 09:04:40;;;;;;;7.77;4.63;;;13.00;99.90;;;;;;5054037;28;20426;-72
2023/11/15 09:07:07;;;;;;;8.60;5.50;;;13.00;99.90;;;;;;5052347;28;20803;-72
2023/11/15 09:09:39;;;;;;;12.30;5.90;;;13.00;99.90;;;;;;5036217;28;20412;-72
2023/11/15 09:12:07;;;;;;;7.57;5.80;;;13.00;99.90;;;;;;5054276;28;20428;-72
2023/11/15 09:14:33;;;;;;;11.87;4.67;;;13.00;99.90;;;;;;5020396;28;20427;-70
2023/11/15 09:17:00;;;;;;;8.27;5.13;;;13.00;99.90;;;;;;5054697;28;20514;-73
2023/11/15 09:19:28;;;;;;;12.83;5.83;;;13.00;99.90;;;;;;5053455;28;22875;-72
2023/11/15 09:21:54;;;;;;;7.37;5.30;;;13.00;99.90;;;;;;5054787;28;20447;-72
2023/11/15 09:24:25;;;;;;;6.77;5.30;;;13.00;99.90;;;;;;5053904;28;20967;-72
2023/11/15 09:26:51;;;;;;;7.03;4.70;;;13.00;99.90;;;;;;5054517;28;20430;-72
2023/11/15 09:29:16;;;;;;;5.13;4.73;;;13.10;99.90;;;;;;5053802;28;20438;-72
2023/11/15 09:31:43;;;;;;;8.00;5.40;;;13.10;99.90;;;;;;5054438;28;20193;-72
2023/11/15 09:34:11;;;;;;;7.47;4.93;;;13.20;99.90;;;;;;5053726;28;20174;-72
2023/11/15 09:36:37;;;;;;;6.30;5.60;;;13.20;99.90;;;;;;5054383;28;20405;-72
2023/11/15 09:39:09;;;;;;;10.07;5.90;;;13.20;99.90;;;;;;5051709;28;20526;-72
2023/11/15 09:41:36;;;;;;;5.80;4.90;;;13.20;99.90;;;;;;5050738;28;21060;-72
2023/11/15 09:44:09;;;;;;;8.37;5.70;;;13.20;99.90;;;;;;5053554;28;20407;-65
2023/11/15 09:46:37;;;;;;;10.63;4.87;;;13.20;99.90;;;;;;5054662;28;20479;-72
2023/11/15 09:49:05;;;;;;;8.33;4.57;;;13.20;99.90;;;;;;5052296;28;20412;-71
2023/11/15 09:51:34;;;;;;;5.87;4.20;;;13.20;99.90;;;;;;5054134;28;20407;-72
2023/11/15 09:54:06;;;;;;;7.17;4.60;;;13.30;99.90;;;;;;5054001;28;20757;-72
2023/11/15 09:56:35;;;;;;;6.17;4.67;;;13.20;99.90;;;;;;5054005;28;20441;-72
2023/11/15 09:59:01;;;;;;;7.73;4.57;;;13.20;99.90;;;;;;5053563;28;20408;-72
2023/11/15 10:01:26;;;;;;;9.30;4.90;;;13.30;99.90;;;;;;5053184;28;20458;-72
2023/11/15 10:03:52;;;;;;;6.63;4.67;;;13.30;99.90;;;;;;5053733;28;20497;-72
2023/11/15 10:06:18;;;;;;;14.33;5.63;;;13.20;99.90;;;;;;5053107;28;20162;-72
2023/11/15 10:08:54;;;;;;;10.40;4.73;;;13.30;99.90;;;;;;5052596;28;20426;-72
2023/11/15 10:11:21;;;;;;;7.50;4.30;;;13.30;99.90;;;;;;5053059;28;20915;-72
2023/11/15 10:13:51;;;;;;;5.03;4.47;;;13.20;99.90;;;;;;5053651;28;20541;-73
2023/11/15 10:16:24;;;;;;;6.63;4.60;;;13.10;99.90;;;;;;5081811;28;20464;-72
2023/11/15 10:18:55;;;;;;;6.53;4.93;;;13.00;99.90;;;;;;5093819;28;20402;-72
2023/11/15 10:21:20;;;;;;;9.30;4.73;;;13.00;99.90;;;;;;5093276;28;20802;-72
2023/11/15 10:23:46;;;;;;;5.87;4.43;;;12.90;99.90;;;;;;5093504;28;20433;-72
2023/11/15 10:26:16;;;;;;;7.03;4.83;;;13.00;99.90;;;;;;5092887;28;20163;-72
2023/11/15 10:28:44;;;;;;;9.40;5.33;;;13.00;99.90;;;;;;5094080;28;20414;-72
2023/11/15 10:31:15;;;;;;;5.57;4.63;;;13.10;99.90;;;;;;5092889;28;20474;-72
2023/11/15 10:33:45;;;;;;;7.40;5.73;;;13.20;99.90;;;;;;5093731;28;20398;-72
2023/11/15 10:36:15;;;;;;;5.13;4.67;;;13.30;99.90;;;;;;5074684;28;20412;-72
2023/11/15 10:38:51;;;;;;;8.17;4.70;;;13.40;99.90;;;;;;5082616;28;20429;-72
2023/11/15 10:41:21;;;;;;;6.57;5.93;;;13.50;99.90;;;;;;5085944;28;20512;-71
2023/11/15 10:43:52;;;;;;;7.03;5.03;;;13.50;99.90;;;;;;5093196;28;20486;-72
2023/11/15 10:46:29;;;;;;;6.30;5.73;;;13.50;99.90;;;;;;5092410;28;20947;-72
2023/11/15 10:48:58;;;;;;;5.70;5.30;;;13.60;99.90;;;;;;5093178;28;20489;-72
2023/11/15 10:51:40;;;;;;;6.53;6.03;;;13.50;99.90;;;;;;5075058;28;20398;-72
2023/11/15 10:54:09;;;;;;;5.87;4.87;;;13.60;99.90;;;;;;5092649;28;20401;-64
2023/11/15 10:56:37;;;;;;;7.23;5.23;;;13.50;99.90;;;;;;5093009;28;20394;-72
2023/11/15 10:59:05;;;;;;;6.33;5.70;;;13.50;99.90;;;;;;5093004;28;20398;-72
2023/11/15 11:01:36;;;;;;;8.80;5.40;;;13.50;99.90;;;;;;5092995;28;20943;-72
2023/11/15 11:04:05;;;;;;;8.40;7.50;;;13.50;99.90;;;;;;5092983;28;20389;-72
2023/11/15 11:07:02;;;;;;;6.03;4.87;;;13.50;99.90;;;;;;5092220;28;20429;-72
2023/11/15 11:09:31;;;;;;;6.50;5.20;;;13.50;99.90;;;;;;5070799;28;20423;-72
2023/11/15 11:12:09;;;;;;;8.20;5.27;;;13.40;99.90;;;;;;5092210;28;20408;-72
2023/11/15 11:14:35;;;;;;;7.33;5.40;;;13.50;99.90;;;;;;5092570;28;20442;-72
2023/11/15 11:17:02;;;;;;;7.50;4.53;;;13.40;99.90;;;;;;5092974;28;20935;-72
2023/11/15 11:19:28;;;;;;;9.07;6.57;;;13.40;99.90;;;;;;5092051;28;20179;-72
2023/11/15 11:22:11;;;;;;;5.90;4.40;;;13.40;99.90;;;;;;5089162;28;20446;-72
2023/11/15 11:25:10;;;;;;;9.10;4.80;;;13.40;99.90;;;;;;5092792;28;20382;-72
2023/11/15 11:27:42;;;;;;;10.20;7.30;;;13.30;99.90;;;;;;5087767;28;20424;-71
2023/11/15 11:30:11;;;;;;;4.27;3.70;;;13.30;99.90;;;;;;5090961;28;20401;-65
2023/11/15 11:32:41;;;;;;;7.80;5.37;;;13.30;99.90;;;;;;5092542;28;20442;-72
2023/11/15 11:35:07;;;;;;;5.30;4.17;;;13.30;99.90;;;;;;5074384;28;20406;-72
2023/11/15 11:37:50;;;;;;;6.07;3.33;;;13.30;99.90;;;;;;5092522;28;20398;-72
2023/11/15 11:40:18;;;;;;;10.87;4.50;;;13.30;99.90;;;;;;5092184;28;20425;-72
2023/11/15 11:42:45;;;;;;;6.23;5.63;;;13.50;99.90;;;;;;5092394;28;20988;-72
2023/11/15 11:45:14;;;;;;;9.13;5.57;;;13.50;99.90;;;;;;5091822;28;20441;-72
2023/11/15 11:47:41;;;;;;;4.63;3.37;;;13.60;99.90;;;;;;5092343;28;20395;-72
2023/11/15 11:50:08;;;;;;;9.80;5.60;;;13.80;99.90;;;;;;5092256;28;20763;-72
2023/11/15 11:52:39;;;;;;;5.27;4.23;;;13.80;99.90;;;;;;5091963;28;20409;-72
2023/11/15 11:55:06;;;;;;;7.93;4.73;;;13.80;99.90;;;;;;5092346;28;20403;-73
2023/11/15 11:57:33;;;;;;;5.90;4.40;;;13.90;99.90;;;;;;5091934;28;20418;-73
2023/11/15 12:00:15;;;;;;;7.33;5.23;;;13.90;99.90;;;;;;5086074;28;20442;-72
2023/11/15 12:02:43;;;;;;;5.47;3.27;;;14.00;99.90;;;;;;5092147;28;20520;-72
2023/11/15 12:05:10;;;;;;;4.27;2.60;;;14.00;99.90;;;;;;5092469;28;20761;-72
2023/11/15 12:07:50;;;;;;;6.03;4.00;;;14.00;99.90;;;;;;5092159;28;20407;-73
2023/11/15 12:10:18;;;;;;;5.13;4.10;;;14.00;99.90;;;;;;5091624;28;20387;-72
2023/11/15 12:13:03;;;;;;;6.83;3.97;;;14.10;99.90;;;;;;5092143;28;20762;-72
2023/11/15 12:15:29;;;;;;;6.90;3.80;;;14.10;99.90;;;;;;5091269;28;20458;-72
2023/11/15 12:17:56;;;;;;;4.70;4.17;;;14.10;99.90;;;;;;5092170;28;20766;-73
2023/11/15 12:20:39;;;;;;;8.90;4.30;;;14.10;99.90;;;;;;5091408;28;20437;-73
2023/11/15 12:23:08;;;;;;;4.30;3.90;;;14.10;99.90;;;;;;5094950;28;20432;-72
2023/11/15 12:25:47;;;;;;;5.10;4.40;;;14.20;99.90;;;;;;5077081;28;20483;-73
2023/11/15 12:28:14;;;;;;;6.93;4.47;;;14.30;99.90;;;;;;5093191;28;20520;-72
2023/11/15 12:30:42;;;;;;;4.87;4.47;;;14.40;99.90;;;;;;5096129;28;20420;-72
2023/11/15 12:33:09;;;;;;;5.07;4.67;;;14.40;99.90;;;;;;5095850;28;20464;-72
2023/11/15 12:35:36;;;;;;;5.10;4.60;;;14.50;99.90;;;;;;5095158;28;20434;-73
2023/11/15 12:38:12;;;;;;;5.53;5.13;;;14.50;99.90;;;;;;5095725;28;20439;-73
2023/11/15 12:40:39;;;;;;;8.40;4.93;;;14.70;99.90;;;;;;5095828;28;20395;-74
2023/11/15 12:43:28;;;;;;;5.17;4.53;;;14.80;99.90;;;;;;5095781;28;20448;-73
2023/11/15 12:46:04;;;;;;;7.23;5.03;;;14.80;99.90;;;;;;5095897;28;20430;-72
2023/11/15 12:48:30;;;;;;;6.27;5.80;;;14.90;99.90;;;;;;5094897;28;20417;-73